Time;durP1;ratioP1;P1;durP2;ratioP2;P2;SDS_P1;SDS_P2;PMS_P1;PMS_P2;Temp;Humidity;BMP_temperature;BMP_pressure;BME280_temperature;BME280_humidity;BME280_pressure;Samples;Min_cycle;Max_cycle;Signal;HPM_P1;HPM_P2
2022/01/25 00:15:16;;;;;;;;;;;1.20;99.90;;;0.06;100.00;102188.47;5066799;28;19931;-76
2022/01/25 00:31:09;;;;;;;;;;;2.60;99.90;;;-0.17;100.00;102182.16;5068708;28;19932;-76
2022/01/25 00:33:38;;;;;;;;;;;0.50;99.90;;;-0.27;100.00;102186.00;5066269;28;20024;-75
2022/01/25 00:36:07;;;;;;;;;;;0.90;99.90;;;-0.35;100.00;102193.38;5067678;28;20023;-76
2022/01/25 00:38:34;;;;;;;;;;;0.80;99.90;;;-0.36;100.00;102199.38;5067725;28;20300;-76
2022/01/25 00:41:01;;;;;;;;;;;0.80;99.90;;;-0.59;100.00;102190.44;5067673;28;20380;-76
2022/01/25 00:43:28;;;;;;;;;;;0.70;99.90;;;-0.47;100.00;102192.75;5066635;28;19932;-76
2022/01/25 00:45:59;;;;;;;;;;;0.60;99.90;;;-0.52;100.00;102191.66;5067358;28;19932;-76
2022/01/25 00:51:35;;;;;;;;;;;0.50;99.90;;;-0.53;100.00;102187.28;5067662;28;20309;-76
2022/01/25 00:54:11;;;;;;;;;;;1.10;99.90;;;-0.48;100.00;102188.41;5066176;28;19924;-76
2022/01/25 00:56:47;;;;;;;;;;;1.40;99.90;;;-0.45;100.00;102189.44;5067357;28;19929;-76
2022/01/25 00:59:28;;;;;;;;;;;0.40;99.90;;;-0.49;100.00;102192.66;5067493;28;19929;-76
2022/01/25 01:01:57;;;;;;;;;;;1.70;99.90;;;-0.55;100.00;102188.88;5067043;28;19935;-76
2022/01/25 01:04:25;;;;;;;;;;;1.00;99.90;;;-0.59;100.00;102187.84;5066963;28;19928;-76
2022/01/25 01:06:52;;;;;;;;;;;0.30;99.90;;;-0.72;100.00;102189.81;5068053;28;20507;-76
2022/01/25 01:09:22;;;;;;;;;;;0.30;99.90;;;-0.62;100.00;102191.16;5068120;28;19937;-76
2022/01/25 01:11:58;;;;;;;;;;;0.30;99.90;;;-0.76;100.00;102182.72;5067117;28;19936;-76
2022/01/25 01:31:02;;;;;;;;;;;0.20;99.90;;;-1.00;100.00;102209.03;5067466;28;19932;-76
2022/01/25 01:39:12;;;;;;;;;;;-0.10;99.90;;;-1.20;100.00;102209.66;5066290;28;19925;-76
2022/01/25 01:44:23;;;;;;;;;;;0.00;99.90;;;-1.36;100.00;102213.09;5068083;28;19932;-76
2022/01/25 01:49:29;;;;;;;;;;;-0.30;99.90;;;-1.30;100.00;102218.63;5067915;28;20657;-76
2022/01/25 01:51:56;;;;;;;;;;;-0.20;99.90;;;-1.26;100.00;102212.78;5067379;28;19966;-76
2022/01/25 01:54:23;;;;;;;;;;;-0.30;99.90;;;-1.21;100.00;102210.47;5064859;28;19928;-76
2022/01/25 01:56:50;;;;;;;;;;;-0.30;99.90;;;-1.24;100.00;102226.69;5067501;28;20436;-76
2022/01/25 01:59:18;;;;;;;;;;;-0.20;99.90;;;-1.26;100.00;102227.41;5049974;28;19946;-76
2022/01/25 02:01:47;;;;;;;;;;;-0.20;99.90;;;-1.35;100.00;102227.78;5066596;28;19928;-76
2022/01/25 02:04:16;;;;;;;;;;;1.00;99.90;;;-1.33;100.00;102223.59;5065152;28;19928;-76
2022/01/25 02:06:43;;;;;;;;;;;-0.30;99.90;;;-1.36;100.00;102228.59;5048848;28;19932;-76
2022/01/25 02:09:11;;;;;;;;;;;-0.10;99.90;;;-1.39;100.00;102225.84;5066129;28;19925;-75
2022/01/25 02:11:38;;;;;;;;;;;-0.40;99.90;;;-1.52;100.00;102214.84;5066000;28;19929;-76
2022/01/25 02:14:08;;;;;;;;;;;-0.40;99.90;;;-1.67;100.00;102209.72;5064732;28;19929;-76
2022/01/25 02:24:46;;;;;;;;;;;-0.50;99.90;;;-1.75;100.00;102201.53;5066035;28;19925;-76
2022/01/25 02:27:13;;;;;;;;;;;1.10;99.90;;;-1.74;100.00;102195.59;5070055;28;19932;-76
2022/01/25 02:29:40;;;;;;;;;;;-0.40;99.90;;;-1.71;100.00;102190.59;5070080;28;19935;-76
2022/01/25 02:32:09;;;;;;;;;;;-0.70;99.90;;;-1.88;100.00;102189.63;5069749;28;19924;-76
2022/01/25 02:34:36;;;;;;;;;;;-0.50;99.90;;;-1.91;100.00;102186.00;5068294;28;19932;-76
2022/01/25 02:37:06;;;;;;;;;;;1.20;99.90;;;-2.01;100.00;102182.88;5071200;28;19928;-76
2022/01/25 02:39:37;;;;;;;;;;;-0.50;99.90;;;-2.00;100.00;102179.50;5069691;28;19929;-76
2022/01/25 02:42:06;;;;;;;;;;;-0.20;99.90;;;-1.90;100.00;102177.47;5071283;28;19964;-76
2022/01/25 02:44:34;;;;;;;;;;;-0.70;99.90;;;-1.88;100.00;102176.72;5068261;28;19934;-76
2022/01/25 02:49:30;;;;;;;;;;;-0.80;99.90;;;-1.79;100.00;102172.88;5070935;28;20478;-76
2022/01/25 02:51:57;;;;;;;;;;;-1.90;99.90;;;-2.02;100.00;102169.94;5069485;28;20411;-76
2022/01/25 02:54:24;;;;;;;;;;;-2.70;99.90;;;-2.02;100.00;102177.66;5067896;28;19928;-76
2022/01/25 02:56:51;;;;;;;;;;;-0.80;99.90;;;-2.23;100.00;102179.91;5069408;28;19929;-76
2022/01/25 02:59:18;;;;;;;;;;;-0.70;99.90;;;-2.20;100.00;102185.22;5070904;28;19934;-76
2022/01/25 03:01:46;;;;;;;;;;;-1.10;99.90;;;-2.26;100.00;102185.75;5069388;28;19955;-76
2022/01/25 03:04:15;;;;;;;;;;;-1.00;99.90;;;-2.33;100.00;102181.94;5069291;28;19935;-77
2022/01/25 03:06:44;;;;;;;;;;;-1.00;99.90;;;-2.34;100.00;102186.97;5068441;28;20286;-77
2022/01/25 03:09:12;;;;;;;;;;;-0.90;99.90;;;-2.34;100.00;102189.56;5069423;28;19929;-76
2022/01/25 03:11:38;;;;;;;;;;;-1.00;99.90;;;-2.30;100.00;102184.69;5068913;28;19970;-75
2022/01/25 03:14:09;;;;;;;;;;;-1.10;99.90;;;-2.32;100.00;102188.00;5067800;28;19982;-76
2022/01/25 03:17:05;;;;;;;;;;;-0.90;99.90;;;-2.21;100.00;102191.19;5069377;28;19948;-76
2022/01/25 03:22:32;;;;;;;;;;;-1.40;99.90;;;-2.26;100.00;102185.75;5069142;28;19932;-76
2022/01/25 03:24:55;;;;;;;;;;;1.60;99.90;;;-2.16;100.00;102182.00;5069490;28;20466;-76
2022/01/25 03:27:22;;;;;;;;;;;-1.10;99.90;;;-2.28;100.00;102182.19;5069124;28;19928;-76
2022/01/25 03:29:49;;;;;;;;;;;-0.90;99.90;;;-2.38;100.00;102191.09;5069018;28;19924;-76
2022/01/25 03:32:16;;;;;;;;;;;-1.10;99.90;;;-2.38;100.00;102182.47;5067803;28;19935;-75
2022/01/25 03:34:43;;;;;;;;;;;-1.20;99.90;;;-2.29;100.00;102183.00;5067824;28;20380;-75
2022/01/25 03:37:10;;;;;;;;;;;-1.10;99.90;;;-2.28;100.00;102188.22;5068094;28;20373;-76
2022/01/25 03:39:37;;;;;;;;;;;-1.20;99.90;;;-2.26;100.00;102182.28;5068493;28;20400;-76
2022/01/25 03:42:08;;;;;;;;;;;-1.20;99.90;;;-2.25;100.00;102194.41;5068543;28;19938;-76
2022/01/25 03:44:35;;;;;;;;;;;-1.20;99.90;;;-2.37;100.00;102195.44;5083909;28;19928;-75
2022/01/25 03:47:10;;;;;;;;;;;-1.00;99.90;;;-2.26;100.00;102193.50;5069127;28;19925;-76
2022/01/25 03:49:52;;;;;;;;;;;-1.10;99.90;;;-2.19;100.00;102185.28;5069625;28;19929;-76
2022/01/25 03:52:29;;;;;;;;;;;-1.20;99.90;;;-2.22;100.00;102190.28;5069003;28;19934;-75
2022/01/25 03:54:56;;;;;;;;;;;-1.10;99.90;;;-2.34;100.00;102190.47;5068909;28;19940;-75
2022/01/25 03:57:25;;;;;;;;;;;-1.00;99.90;;;-2.25;100.00;102189.25;5069596;28;19947;-76
2022/01/25 03:59:55;;;;;;;;;;;1.90;99.90;;;-2.28;100.00;102189.94;5068208;28;19929;-76
2022/01/25 04:02:23;;;;;;;;;;;0.60;99.90;;;-2.57;100.00;102190.03;5067920;28;20393;-76
2022/01/25 04:04:51;;;;;;;;;;;-0.90;99.90;;;-2.38;100.00;102190.19;5051929;28;19925;-76
2022/01/25 04:07:26;;;;;;;;;;;-1.10;99.90;;;-2.39;100.00;102197.06;5073939;28;19928;-76
2022/01/25 04:09:53;;;;;;;;;;;-1.30;99.90;;;-2.56;100.00;102190.91;5070366;28;20472;-76
2022/01/25 04:12:20;;;;;;;;;;;-1.30;99.90;;;-2.44;100.00;102190.72;5066871;28;19931;-76
2022/01/25 04:14:47;;;;;;;;;;;-1.20;99.90;;;-2.42;100.00;102186.53;5067483;28;19936;-76
2022/01/25 04:17:19;;;;;;;;;;;-1.80;99.90;;;-2.49;100.00;102180.16;5069074;28;19924;-76
2022/01/25 04:19:58;;;;;;;;;;;-1.30;99.90;;;-2.55;100.00;102187.50;5052054;28;19935;-76
2022/01/25 04:27:24;;;;;;;;;;;-1.40;99.90;;;-3.08;100.00;102181.81;5069148;28;19929;-76
2022/01/25 04:29:52;;;;;;;;;;;-1.50;99.90;;;-3.13;100.00;102178.94;5067442;28;19928;-76
2022/01/25 04:32:21;;;;;;;;;;;-1.70;99.90;;;-3.07;100.00;102187.84;5066996;28;20416;-76
2022/01/25 04:54:08;;;;;;;;;;;-0.70;99.90;;;-3.02;100.00;102169.31;5065794;28;19929;-75
2022/01/25 04:59:31;;;;;;;;;;;-1.90;99.90;;;-3.17;100.00;102173.50;5069057;28;20567;-77
2022/01/25 05:02:08;;;;;;;;;;;1.50;99.90;;;-3.04;100.00;102172.59;5066148;28;20340;-77
2022/01/25 05:04:45;;;;;;;;;;;-1.80;99.90;;;-3.01;100.00;102170.22;5067792;28;19929;-77
2022/01/25 05:07:44;;;;;;;;;;;-1.60;99.90;;;-2.99;100.00;102161.75;5067414;28;19962;-77
2022/01/25 05:10:11;;;;;;;;;;;-1.90;99.90;;;-2.99;100.00;102163.47;5068647;28;19934;-77
2022/01/25 05:12:46;;;;;;;;;;;-0.70;99.90;;;-3.00;100.00;102164.25;5062928;28;20424;-77
2022/01/25 05:18:22;;;;;;;;;;;-1.90;99.90;;;-3.26;100.00;102170.41;5070986;28;19935;-79
2022/01/25 05:23:35;;;;;;;;;;;1.30;99.90;;;-3.42;100.00;102174.59;5072709;28;19925;-78
2022/01/25 05:26:02;;;;;;;;;;;-2.00;99.90;;;-3.65;100.00;102168.00;5073921;28;20370;-78
2022/01/25 05:28:29;;;;;;;;;;;0.10;99.90;;;-3.77;100.00;102169.00;5074841;28;19924;-78
2022/01/25 05:30:56;;;;;;;;;;;-2.20;99.90;;;-3.65;100.00;102180.88;5070301;28;20398;-77
2022/01/25 05:33:23;;;;;;;;;;;-2.20;99.90;;;-3.54;100.00;102181.53;5068974;28;20475;-77
2022/01/25 05:35:50;;;;;;;;;;;-2.10;99.90;;;-3.49;100.00;102181.03;5066637;28;20270;-77
2022/01/25 05:38:34;;;;;;;;;;;-2.40;99.90;;;-3.46;100.00;102186.38;5047607;28;19920;-77
2022/01/25 05:41:03;;;;;;;;;;;-2.40;99.90;;;-3.53;100.00;102179.03;5083961;28;19978;-76
2022/01/25 05:46:16;;;;;;;;;;;-2.20;99.90;;;-3.49;100.00;102182.72;5048824;28;20536;-77
2022/01/25 05:48:47;;;;;;;;;;;-2.20;99.90;;;-3.60;100.00;102180.34;5082514;28;20044;-77
2022/01/25 05:51:14;;;;;;;;;;;-2.10;99.90;;;-3.47;100.00;102181.13;5063296;28;20417;-77
2022/01/25 05:53:42;;;;;;;;;;;-2.40;99.90;;;-3.51;100.00;102186.88;5047739;28;20508;-77
2022/01/25 05:56:09;;;;;;;;;;;-1.70;99.90;;;-3.54;100.00;102187.56;5046768;28;20420;-77
2022/01/25 05:58:39;;;;;;;;;;;-2.00;99.90;;;-3.53;100.00;102191.91;5061928;28;20385;-77
2022/01/25 06:01:06;;;;;;;;;;;-2.10;99.90;;;-3.57;100.00;102190.84;5066726;28;19934;-78
2022/01/25 06:03:38;;;;;;;;;;;-1.60;99.90;;;-3.50;100.00;102192.13;5073325;28;19924;-77
2022/01/25 06:06:05;;;;;;;;;;;-2.30;99.90;;;-3.46;100.00;102194.09;5092120;28;19940;-77
2022/01/25 06:08:32;;;;;;;;;;;-2.30;99.90;;;-3.51;100.00;102187.78;5072448;28;19928;-79
2022/01/25 06:10:59;;;;;;;;;;;-2.30;99.90;;;-3.61;100.00;102203.41;5077023;28;19950;-79
2022/01/25 06:13:26;;;;;;;;;;;0.80;99.90;;;-3.58;100.00;102201.94;5073996;28;20331;-79
2022/01/25 06:15:52;;;;;;;;;;;-4.30;99.90;;;-3.50;100.00;102202.44;5070813;28;20386;-78
2022/01/25 06:18:19;;;;;;;;;;;-2.20;99.90;;;-3.37;100.00;102198.94;5071728;28;19924;-78
2022/01/25 06:21:04;;;;;;;;;;;-2.30;99.90;;;-3.33;100.00;102200.88;5056809;28;19970;-79
2022/01/25 06:23:30;;;;;;;;;;;-2.10;99.90;;;-3.42;100.00;102208.94;5070177;28;19929;-79
2022/01/25 06:25:57;;;;;;;;;;;-2.20;99.90;;;-3.35;100.00;102207.63;5069655;28;19928;-78
2022/01/25 06:28:24;;;;;;;;;;;-2.10;99.90;;;-3.37;100.00;102198.94;5068569;28;19928;-78
2022/01/25 06:30:51;;;;;;;;;;;-2.10;99.90;;;-3.35;100.00;102204.19;5052315;28;19928;-77
2022/01/25 06:33:18;;;;;;;;;;;-2.10;99.90;;;-3.30;100.00;102202.78;5083913;28;19978;-78
2022/01/25 06:35:46;;;;;;;;;;;-2.20;99.90;;;-3.27;100.00;102200.38;5067378;28;20293;-78
2022/01/25 06:38:13;;;;;;;;;;;-1.90;99.90;;;-3.30;100.00;102201.06;5067611;28;20313;-78
2022/01/25 06:40:40;;;;;;;;;;;-0.70;99.90;;;-3.22;100.00;102198.09;5067227;28;19924;-78
2022/01/25 06:43:07;;;;;;;;;;;-2.10;99.90;;;-3.08;100.00;102186.97;5067511;28;19932;-78
2022/01/25 06:45:39;;;;;;;;;;;-2.10;99.90;;;-3.08;100.00;102197.28;5066540;28;19924;-78
2022/01/25 06:48:12;;;;;;;;;;;-1.80;99.90;;;-2.97;100.00;102209.91;5067310;28;20393;-77
2022/01/25 06:50:42;;;;;;;;;;;-1.90;99.90;;;-2.86;100.00;102220.09;5049984;28;19924;-77
2022/01/25 06:53:09;;;;;;;;;;;-1.90;99.90;;;-2.88;100.00;102220.78;5050414;28;20366;-77
2022/01/25 06:55:38;;;;;;;;;;;-1.80;99.90;;;-2.83;100.00;102221.94;5066048;28;19934;-78
2022/01/25 06:58:09;;;;;;;;;;;-1.80;99.90;;;-2.83;100.00;102229.66;5067076;28;19932;-78
2022/01/25 07:00:36;;;;;;;;;;;-1.90;99.90;;;-2.80;100.00;102226.41;5050685;28;20404;-78
2022/01/25 07:03:04;;;;;;;;;;;-1.70;99.90;;;-2.70;100.00;102228.75;5068350;28;19967;-78
2022/01/25 07:05:31;;;;;;;;;;;-1.70;99.90;;;-2.67;100.00;102228.91;5067095;28;19928;-78
2022/01/25 07:08:02;;;;;;;;;;;1.70;99.90;;;-2.58;100.00;102224.28;5067230;28;19928;-78
2022/01/25 07:10:29;;;;;;;;;;;-1.30;99.90;;;-2.48;100.00;102230.00;5034960;28;19928;-77
2022/01/25 07:12:56;;;;;;;;;;;-1.60;99.90;;;-2.49;100.00;102236.88;5069123;28;20690;-78
2022/01/25 07:15:23;;;;;;;;;;;1.00;99.90;;;-2.42;100.00;102238.09;5070808;28;20340;-77
2022/01/25 07:17:49;;;;;;;;;;;-0.80;99.90;;;-2.37;100.00;102236.72;5070134;28;19924;-78
2022/01/25 07:20:17;;;;;;;;;;;-0.30;99.90;;;-2.26;100.00;102239.91;5072149;28;19932;-78
2022/01/25 07:22:44;;;;;;;;;;;-1.50;99.90;;;-2.26;100.00;102244.16;5072710;28;20027;-78
2022/01/25 07:25:11;;;;;;;;;;;-1.20;99.90;;;-2.14;100.00;102243.22;5072338;28;19982;-77
2022/01/25 07:27:38;;;;;;;;;;;-1.30;99.90;;;-2.05;100.00;102229.06;5054632;28;19936;-77
2022/01/25 07:30:06;;;;;;;;;;;-1.10;99.90;;;-1.96;100.00;102239.91;5055154;28;20026;-77
2022/01/25 07:32:33;;;;;;;;;;;-1.10;99.90;;;-1.86;100.00;102243.91;5069530;28;19954;-78
2022/01/25 07:35:06;;;;;;;;;;;-1.00;99.90;;;-1.76;100.00;102243.66;5070189;28;19929;-77
2022/01/25 07:37:42;;;;;;;;;;;-1.10;99.90;;;-1.69;100.00;102244.88;5071259;28;20061;-78
2022/01/25 07:40:10;;;;;;;;;;;-0.10;99.90;;;-1.58;100.00;102242.91;5071377;28;19931;-78
2022/01/25 07:42:40;;;;;;;;;;;-0.80;99.90;;;-1.46;100.00;102237.53;5072124;28;19928;-77
2022/01/25 07:45:21;;;;;;;;;;;1.30;99.90;;;-1.38;100.00;102245.69;5056637;28;20312;-77
2022/01/25 07:47:58;;;;;;;;;;;-0.50;99.90;;;-1.33;100.00;102250.31;5071522;28;20421;-77
2022/01/25 07:50:26;;;;;;;;;;;1.30;99.90;;;-1.27;100.00;102244.59;5071726;28;19928;-77
2022/01/25 07:52:54;;;;;;;;;;;-0.40;99.90;;;-1.23;100.00;102243.09;5054849;28;20286;-78
2022/01/25 07:55:21;;;;;;;;;;;-1.00;99.90;;;-1.19;100.00;102248.47;5071126;28;20451;-78
2022/01/25 07:57:48;;;;;;;;;;;-0.20;99.90;;;-1.18;100.00;102245.09;5072785;28;19928;-78
2022/01/25 08:00:16;;;;;;;;;;;-0.40;99.90;;;-1.10;100.00;102253.25;5055880;28;19929;-78
2022/01/25 08:02:46;;;;;;;;;;;-1.10;99.90;;;-1.06;100.00;102247.47;5054676;28;19981;-78
2022/01/25 08:05:27;;;;;;;;;;;-0.20;99.90;;;-1.03;100.00;102250.22;5034521;28;19925;-79
2022/01/25 08:08:14;;;;;;;;;;;-0.30;99.90;;;-1.01;100.00;102248.59;5046149;28;19963;-78
2022/01/25 08:10:54;;;;;;;;;;;-0.20;99.90;;;-0.89;100.00;102244.91;5087461;28;19955;-77
2022/01/25 08:13:37;;;;;;;;;;;1.80;99.90;;;-0.83;100.00;102239.16;5053849;28;19931;-79
2022/01/25 08:16:08;;;;;;;;;;;1.20;99.90;;;-0.75;100.00;102241.34;5052755;28;19929;-81
2022/01/25 08:18:42;;;;;;;;;;;2.60;99.90;;;-0.72;100.00;102244.09;5033801;28;20016;-80
2022/01/25 08:21:32;;;;;;;;;;;0.00;99.90;;;-0.63;100.00;102235.94;5022824;28;19926;-79
2022/01/25 08:24:04;;;;;;;;;;;0.40;99.90;;;-0.55;100.00;102244.09;5013380;28;20016;-81
2022/01/25 08:26:45;;;;;;;;;;;0.20;99.90;;;-0.56;100.00;102244.91;5009620;28;19933;-77
2022/01/25 08:29:18;;;;;;;;;;;1.50;99.90;;;-0.55;100.00;102241.50;5029719;28;19929;-80
2022/01/25 08:31:50;;;;;;;;;;;0.30;99.90;;;-0.53;100.00;102237.28;4997691;28;19976;-80
2022/01/25 08:34:37;;;;;;;;;;;0.60;99.90;;;-0.58;100.00;102244.81;4987901;28;19929;-81
2022/01/25 08:37:09;;;;;;;;;;;0.40;99.90;;;-0.52;100.00;102240.78;5014698;28;19930;-80
2022/01/25 08:39:36;;;;;;;;;;;0.60;99.90;;;-0.43;100.00;102244.72;5014768;28;19979;-80
2022/01/25 08:42:04;;;;;;;;;;;0.30;99.90;;;-0.44;100.00;102240.38;5014440;28;20425;-78
2022/01/25 08:44:38;;;;;;;;;;;0.60;99.90;;;-0.42;100.00;102245.59;5011552;28;20036;-77
2022/01/25 08:47:09;;;;;;;;;;;0.50;99.90;;;-0.49;100.00;102252.16;5011464;28;19936;-78
2022/01/25 08:49:54;;;;;;;;;;;0.70;99.90;;;-0.53;100.00;102255.38;5010255;28;19929;-78
2022/01/25 08:52:41;;;;;;;;;;;0.70;99.90;;;-0.43;100.00;102261.94;4988989;28;19964;-78
2022/01/25 08:55:33;;;;;;;;;;;0.60;99.90;;;-0.41;100.00;102262.88;5000264;28;19929;-78
2022/01/25 08:58:17;;;;;;;;;;;1.90;99.90;;;-0.35;100.00;102267.50;4945340;28;19933;-79
2022/01/25 09:01:03;;;;;;;;;;;0.60;99.90;;;-0.29;100.00;102266.13;4944731;28;19926;-78
2022/01/25 09:03:30;;;;;;;;;;;2.10;99.90;;;-0.26;100.00;102267.06;4939465;28;20122;-78
2022/01/25 09:05:57;;;;;;;;;;;1.10;99.90;;;-0.35;100.00;102273.56;4971268;28;19954;-78
2022/01/25 09:08:27;;;;;;;;;;;0.50;99.90;;;-0.29;100.00;102260.94;4951919;28;19933;-78
2022/01/25 09:11:02;;;;;;;;;;;1.30;99.90;;;-0.23;100.00;102267.25;4967908;28;20354;-77
2022/01/25 09:13:30;;;;;;;;;;;1.20;99.90;;;-0.11;100.00;102265.28;4936039;28;20054;-78
2022/01/25 09:15:58;;;;;;;;;;;0.80;99.90;;;0.03;100.00;102262.50;4952378;28;20033;-78
2022/01/25 09:18:26;;;;;;;;;;;1.00;99.90;;;0.00;100.00;102260.66;4937415;28;20013;-78
2022/01/25 09:20:56;;;;;;;;;;;0.90;99.90;;;-0.08;100.00;102262.88;4952739;28;19981;-78
2022/01/25 09:23:24;;;;;;;;;;;0.30;99.90;;;0.02;100.00;102265.91;4953817;28;19970;-79
2022/01/25 09:25:51;;;;;;;;;;;1.90;99.90;;;0.05;100.00;102261.75;4936586;28;19933;-78
2022/01/25 09:28:18;;;;;;;;;;;0.90;99.90;;;0.12;100.00;102257.78;4991427;28;20303;-78
2022/01/25 09:31:03;;;;;;;;;;;0.90;99.90;;;0.19;100.00;102264.16;5008795;28;19926;-77
2022/01/25 09:33:33;;;;;;;;;;;1.10;99.90;;;0.28;100.00;102256.81;5007353;28;19929;-77
2022/01/25 09:36:00;;;;;;;;;;;2.60;99.90;;;0.31;100.00;102256.09;5006795;28;19930;-78
2022/01/25 09:38:27;;;;;;;;;;;1.10;99.90;;;0.36;100.00;102252.00;5007314;28;19956;-78
2022/01/25 09:40:54;;;;;;;;;;;3.80;99.90;;;0.40;100.00;102251.38;5007652;28;19926;-77
2022/01/25 09:43:39;;;;;;;;;;;2.00;99.90;;;0.36;100.00;102252.91;5007340;28;20024;-77
2022/01/25 09:46:06;;;;;;;;;;;1.30;99.90;;;0.45;100.00;102262.81;5009230;28;19933;-77
2022/01/25 09:48:33;;;;;;;;;;;1.40;99.90;;;0.51;100.00;102263.09;5008700;28;19984;-77
2022/01/25 09:51:01;;;;;;;;;;;1.20;99.90;;;0.57;100.00;102270.28;5007455;28;19929;-77
2022/01/25 09:53:29;;;;;;;;;;;1.40;99.90;;;0.63;100.00;102268.00;5007734;28;19929;-77
2022/01/25 09:55:56;;;;;;;;;;;1.20;99.90;;;0.75;100.00;102261.59;4991266;28;19933;-77
2022/01/25 09:58:23;;;;;;;;;;;1.50;99.90;;;0.82;100.00;102266.28;5007214;28;19964;-77
2022/01/25 10:00:56;;;;;;;;;;;1.40;99.90;;;0.77;100.00;102262.56;5006724;28;20386;-78
2022/01/25 10:03:29;;;;;;;;;;;1.50;99.90;;;0.85;100.00;102269.88;5007957;28;19980;-77
2022/01/25 10:06:00;;;;;;;;;;;2.80;99.90;;;0.93;100.00;102279.72;5008176;28;19933;-78
2022/01/25 10:08:35;;;;;;;;;;;1.80;99.90;;;0.99;100.00;102280.91;5007548;28;19968;-77
2022/01/25 10:11:05;;;;;;;;;;;1.50;99.90;;;0.99;100.00;102278.31;5008516;28;19930;-77
2022/01/25 10:13:34;;;;;;;;;;;2.00;99.90;;;1.08;100.00;102275.25;5009194;28;20032;-78
2022/01/25 10:16:04;;;;;;;;;;;4.00;99.90;;;1.09;100.00;102273.53;5007455;28;19968;-78
2022/01/25 10:18:52;;;;;;;;;;;2.50;99.90;;;1.12;100.00;102276.28;5007569;28;20011;-78
2022/01/25 10:21:43;;;;;;;;;;;1.90;99.90;;;1.15;100.00;102267.75;5008431;28;19925;-78
2022/01/25 10:24:14;;;;;;;;;;;4.40;99.90;;;1.17;100.00;102266.09;5009161;28;19952;-77
2022/01/25 10:27:00;;;;;;;;;;;4.70;99.90;;;1.21;100.00;102265.44;5007239;28;20378;-78
2022/01/25 10:29:35;;;;;;;;;;;2.10;99.90;;;1.17;100.00;102268.69;5010200;28;19940;-77
2022/01/25 10:32:13;;;;;;;;;;;2.00;99.90;;;1.14;100.00;102269.47;4997030;28;19929;-77
2022/01/25 10:34:44;;;;;;;;;;;2.00;99.90;;;1.21;100.00;102271.50;5014117;28;19930;-77
2022/01/25 10:37:13;;;;;;;;;;;2.00;99.90;;;1.27;100.00;102281.28;5025329;28;20012;-78
2022/01/25 10:39:42;;;;;;;;;;;2.00;99.90;;;1.28;100.00;102277.84;5009440;28;19926;-77
2022/01/25 10:42:29;;;;;;;;;;;2.10;99.90;;;1.33;100.00;102272.88;5009293;28;19929;-77
2022/01/25 10:45:04;;;;;;;;;;;2.10;99.90;;;1.31;100.00;102271.94;4991696;28;19925;-77
2022/01/25 10:47:45;;;;;;;;;;;2.20;99.90;;;1.32;100.00;102277.16;5010028;28;20361;-77
2022/01/25 10:50:23;;;;;;;;;;;-0.50;99.90;;;1.25;100.00;102268.25;5013202;28;20352;-77
2022/01/25 10:53:10;;;;;;;;;;;2.10;99.90;;;1.35;100.00;102273.84;5010093;28;19933;-77
2022/01/25 10:55:57;;;;;;;;;;;2.10;99.90;;;1.36;100.00;102270.44;5011575;28;19934;-78
2022/01/25 10:58:24;;;;;;;;;;;2.00;99.90;;;1.32;100.00;102268.53;5009676;28;19933;-78
2022/01/25 11:00:51;;;;;;;;;;;2.00;99.90;;;1.42;100.00;102263.81;4993624;28;19930;-77
2022/01/25 11:03:31;;;;;;;;;;;2.20;99.90;;;1.44;100.00;102266.47;5008965;28;19936;-78
2022/01/25 11:06:14;;;;;;;;;;;2.30;99.90;;;1.40;100.00;102262.84;5010307;28;19930;-77
2022/01/25 11:08:43;;;;;;;;;;;2.30;99.90;;;1.32;100.00;102264.19;5009831;28;19925;-75
2022/01/25 11:11:21;;;;;;;;;;;2.20;99.90;;;1.32;100.00;102261.59;5010419;28;20028;-77
2022/01/25 11:13:49;;;;;;;;;;;2.80;99.90;;;1.35;100.00;102266.97;5028794;28;19929;-77
2022/01/25 11:16:16;;;;;;;;;;;4.60;99.90;;;1.37;100.00;102260.13;5013166;28;20303;-77
2022/01/25 11:18:43;;;;;;;;;;;3.10;99.90;;;1.36;100.00;102275.59;5012741;28;20347;-77
2022/01/25 11:21:11;;;;;;;;;;;3.70;99.90;;;1.37;100.00;102262.72;4995359;28;20383;-77
2022/01/25 11:23:41;;;;;;;;;;;2.30;99.90;;;1.36;100.00;102263.53;4996406;28;19936;-77
2022/01/25 11:26:12;;;;;;;;;;;2.20;99.90;;;1.44;100.00;102265.56;5012755;28;20003;-75
2022/01/25 11:28:41;;;;;;;;;;;2.20;99.90;;;1.58;100.00;102267.06;4997836;28;20027;-75
2022/01/25 11:31:22;;;;;;;;;;;2.40;99.90;;;1.56;100.00;102263.53;5009557;28;19984;-77
2022/01/25 11:33:52;;;;;;;;;;;2.30;99.90;;;1.42;100.00;102261.22;5041339;28;19937;-76
2022/01/25 11:36:20;;;;;;;;;;;2.60;99.90;;;1.49;100.00;102267.56;5041614;28;19929;-76
2022/01/25 11:38:50;;;;;;;;;;;2.70;99.90;;;1.64;100.00;102258.66;5041331;28;20040;-75
2022/01/25 11:41:23;;;;;;;;;;;5.30;99.90;;;1.71;100.00;102258.09;5041169;28;19925;-77
2022/01/25 11:44:15;;;;;;;;;;;2.40;99.90;;;1.74;100.00;102257.34;5045812;28;20097;-77
2022/01/25 11:46:46;;;;;;;;;;;2.50;99.90;;;1.50;100.00;102248.56;5010985;28;19972;-76
2022/01/25 11:49:17;;;;;;;;;;;3.80;99.90;;;1.47;100.00;102252.72;5024716;28;19930;-77
2022/01/25 11:51:46;;;;;;;;;;;2.30;99.90;;;1.24;100.00;102247.44;4992186;28;19941;-78
2022/01/25 11:54:13;;;;;;;;;;;2.60;99.90;;;1.28;100.00;102254.53;5008446;28;19932;-77
2022/01/25 11:56:41;;;;;;;;;;;3.40;99.90;;;1.34;100.00;102257.41;5011635;28;19937;-77
2022/01/25 11:59:12;;;;;;;;;;;2.10;99.90;;;1.31;100.00;102261.56;5008788;28;20044;-76
2022/01/25 12:01:39;;;;;;;;;;;2.30;99.90;;;1.41;100.00;102254.25;4992093;28;19929;-78
2022/01/25 12:04:10;;;;;;;;;;;2.20;99.90;;;1.57;100.00;102249.72;5009899;28;20390;-77
2022/01/25 12:06:41;;;;;;;;;;;2.30;99.90;;;1.62;100.00;102247.34;5010497;28;19944;-77
2022/01/25 12:09:31;;;;;;;;;;;3.10;99.90;;;1.68;100.00;102248.50;5009382;28;19929;-77
2022/01/25 12:12:00;;;;;;;;;;;3.30;99.90;;;1.78;100.00;102247.19;5009054;28;19933;-77
2022/01/25 12:14:41;;;;;;;;;;;3.20;99.90;;;1.80;100.00;102244.66;5007928;28;19972;-76
2022/01/25 12:17:14;;;;;;;;;;;2.40;99.90;;;1.82;100.00;102236.09;5007020;28;19972;-76
2022/01/25 12:19:47;;;;;;;;;;;2.50;99.90;;;1.92;100.00;102239.94;5007003;28;19983;-77
2022/01/25 12:22:40;;;;;;;;;;;2.50;99.90;;;1.82;100.00;102241.28;5009198;28;19929;-77
2022/01/25 12:25:19;;;;;;;;;;;2.50;99.90;;;1.92;100.00;102234.75;5009251;28;20478;-76
2022/01/25 12:28:03;;;;;;;;;;;2.60;99.90;;;1.92;100.00;102239.09;5010245;28;19930;-77
2022/01/25 12:30:40;;;;;;;;;;;4.20;99.90;;;1.90;100.00;102231.22;5010598;28;19929;-77
2022/01/25 12:33:19;;;;;;;;;;;3.80;99.90;;;1.90;100.00;102228.63;5025387;28;19968;-77
2022/01/25 12:35:59;;;;;;;;;;;2.60;99.90;;;1.91;100.00;102221.75;5009737;28;20410;-77
2022/01/25 12:38:43;;;;;;;;;;;5.20;99.90;;;1.95;100.00;102226.22;5007499;28;19929;-77
2022/01/25 12:41:20;;;;;;;;;;;2.60;99.90;;;2.00;100.00;102229.03;5007063;28;19933;-76
2022/01/25 12:43:51;;;;;;;;;;;2.70;99.90;;;2.05;100.00;102228.38;5009066;28;19933;-77
2022/01/25 12:46:34;;;;;;;;;;;3.70;99.90;;;2.05;100.00;102215.41;5000087;28;19929;-77
2022/01/25 12:49:11;;;;;;;;;;;2.60;99.90;;;2.04;100.00;102216.22;4994773;28;20465;-77
2022/01/25 12:51:46;;;;;;;;;;;2.80;99.90;;;2.09;100.00;102213.78;5007743;28;20391;-77
2022/01/25 12:54:16;;;;;;;;;;;3.90;99.90;;;2.16;100.00;102208.03;5015795;28;19929;-77
2022/01/25 12:56:49;;;;;;;;;;;2.80;99.90;;;2.14;100.00;102201.91;5007459;28;19933;-77
2022/01/25 12:59:19;;;;;;;;;;;2.90;99.90;;;2.19;100.00;102208.16;5005479;28;19936;-77
2022/01/25 13:01:47;;;;;;;;;;;5.20;99.90;;;2.22;100.00;102210.00;5007640;28;19929;-77
2022/01/25 13:04:14;;;;;;;;;;;5.10;99.90;;;2.20;100.00;102206.47;5008205;28;19925;-77
2022/01/25 13:06:48;;;;;;;;;;;3.00;99.90;;;2.22;100.00;102207.41;4991474;28;19936;-77
2022/01/25 13:14:49;;;;;;;;;;;2.90;99.90;;;1.96;100.00;102202.94;5007567;28;19925;-79
2022/01/25 13:17:22;;;;;;;;;;;3.30;99.90;;;1.97;100.00;102201.22;5007843;28;19929;-78
2022/01/25 13:20:00;;;;;;;;;;;2.80;99.90;;;2.00;100.00;102200.47;5009157;28;19948;-79
2022/01/25 13:22:38;;;;;;;;;;;2.60;99.90;;;2.11;100.00;102196.59;5007191;28;20485;-77